sensor_id;sensor_type;location;lat;lon;timestamp;pressure;altitude;pressure_sealevel;temperature;humidity
7026;BME280;3554;42.132;24.786;2023-02-18T00:02:08;100092.22;;;8.93;76.04
7026;BME280;3554;42.132;24.786;2023-02-18T00:04:34;100090.44;;;8.94;75.94
7026;BME280;3554;42.132;24.786;2023-02-18T00:07:01;100084.41;;;8.93;76.06
7026;BME280;3554;42.132;24.786;2023-02-18T00:09:28;100099.22;;;8.91;75.73
7026;BME280;3554;42.132;24.786;2023-02-18T00:11:56;100081.78;;;8.93;75.21
7026;BME280;3554;42.132;24.786;2023-02-18T00:14:23;100043.19;;;8.68;75.09
7026;BME280;3554;42.132;24.786;2023-02-18T00:16:50;100089.56;;;8.95;74.99
7026;BME280;3554;42.132;24.786;2023-02-18T00:19:18;100077.34;;;8.97;75.09
7026;BME280;3554;42.132;24.786;2023-02-18T00:21:45;100060.94;;;8.90;74.43
7026;BME280;3554;42.132;24.786;2023-02-18T00:24:13;100074.63;;;9.36;72.34
7026;BME280;3554;42.132;24.786;2023-02-18T00:26:41;100070.25;;;9.38;71.41
7026;BME280;3554;42.132;24.786;2023-02-18T00:29:09;100067.84;;;9.29;71.18
7026;BME280;3554;42.132;24.786;2023-02-18T00:31:37;100071.19;;;9.36;71.37
7026;BME280;3554;42.132;24.786;2023-02-18T00:34:04;100073.72;;;9.39;70.70
7026;BME280;3554;42.132;24.786;2023-02-18T00:36:32;100060.00;;;9.29;71.22
7026;BME280;3554;42.132;24.786;2023-02-18T00:39:00;100059.78;;;9.38;70.49
7026;BME280;3554;42.132;24.786;2023-02-18T00:41:28;100061.31;;;9.12;71.83
7026;BME280;3554;42.132;24.786;2023-02-18T00:43:55;100051.81;;;9.09;71.67
7026;BME280;3554;42.132;24.786;2023-02-18T00:46:24;100036.72;;;9.20;70.91
7026;BME280;3554;42.132;24.786;2023-02-18T00:48:51;100049.84;;;9.52;69.08
7026;BME280;3554;42.132;24.786;2023-02-18T00:51:19;100044.66;;;9.51;68.59
7026;BME280;3554;42.132;24.786;2023-02-18T00:53:45;100036.22;;;9.40;68.68
7026;BME280;3554;42.132;24.786;2023-02-18T00:56:12;100047.34;;;9.14;69.94
7026;BME280;3554;42.132;24.786;2023-02-18T00:58:39;100038.47;;;8.83;72.89
7026;BME280;3554;42.132;24.786;2023-02-18T01:01:07;100035.81;;;8.86;73.59
7026;BME280;3554;42.132;24.786;2023-02-18T01:03:36;100017.06;;;8.69;74.15
7026;BME280;3554;42.132;24.786;2023-02-18T01:06:04;100022.19;;;8.34;75.54
7026;BME280;3554;42.132;24.786;2023-02-18T01:08:31;100020.56;;;8.28;77.75
7026;BME280;3554;42.132;24.786;2023-02-18T01:10:58;100011.50;;;8.03;80.32
7026;BME280;3554;42.132;24.786;2023-02-18T01:13:26;100001.25;;;7.94;80.25
7026;BME280;3554;42.132;24.786;2023-02-18T01:15:53;100008.31;;;7.89;81.74
7026;BME280;3554;42.132;24.786;2023-02-18T01:18:21;100002.16;;;7.93;82.05
7026;BME280;3554;42.132;24.786;2023-02-18T01:20:49;100002.19;;;7.92;82.13
7026;BME280;3554;42.132;24.786;2023-02-18T01:23:16;100003.28;;;7.80;82.46
7026;BME280;3554;42.132;24.786;2023-02-18T01:25:43;99995.97;;;7.54;84.93
7026;BME280;3554;42.132;24.786;2023-02-18T01:28:11;99976.53;;;7.25;87.47
7026;BME280;3554;42.132;24.786;2023-02-18T01:30:39;99991.38;;;7.69;86.06
7026;BME280;3554;42.132;24.786;2023-02-18T01:33:05;99981.19;;;7.98;83.68
7026;BME280;3554;42.132;24.786;2023-02-18T01:35:33;99965.13;;;7.78;84.06
7026;BME280;3554;42.132;24.786;2023-02-18T01:38:01;99979.53;;;7.95;83.93
7026;BME280;3554;42.132;24.786;2023-02-18T01:40:29;99938.50;;;7.62;83.91
7026;BME280;3554;42.132;24.786;2023-02-18T01:42:56;99964.94;;;7.87;83.84
7026;BME280;3554;42.132;24.786;2023-02-18T01:45:47;99950.25;;;7.83;82.80
7026;BME280;3554;42.132;24.786;2023-02-18T01:48:18;99962.88;;;8.02;82.24
7026;BME280;3554;42.132;24.786;2023-02-18T01:50:49;99973.13;;;8.11;82.61
7026;BME280;3554;42.132;24.786;2023-02-18T01:53:21;99932.91;;;7.80;82.58
7026;BME280;3554;42.132;24.786;2023-02-18T01:55:50;99976.78;;;8.01;82.75
7026;BME280;3554;42.132;24.786;2023-02-18T01:58:17;99969.94;;;7.97;83.16
7026;BME280;3554;42.132;24.786;2023-02-18T02:00:44;99975.38;;;7.85;84.34
7026;BME280;3554;42.132;24.786;2023-02-18T02:03:11;99972.78;;;7.87;84.65
7026;BME280;3554;42.132;24.786;2023-02-18T02:05:38;99976.78;;;8.01;83.86
7026;BME280;3554;42.132;24.786;2023-02-18T02:08:05;99971.97;;;8.24;81.92
7026;BME280;3554;42.132;24.786;2023-02-18T02:10:46;99972.94;;;8.20;81.93
7026;BME280;3554;42.132;24.786;2023-02-18T02:13:24;99959.81;;;8.23;81.76
7026;BME280;3554;42.132;24.786;2023-02-18T02:16:00;99959.84;;;8.22;80.86
7026;BME280;3554;42.132;24.786;2023-02-18T02:18:39;99961.56;;;8.23;80.37
7026;BME280;3554;42.132;24.786;2023-02-18T02:21:36;99980.91;;;8.13;81.67
7026;BME280;3554;42.132;24.786;2023-02-18T02:27:25;99995.09;;;7.98;82.79
7026;BME280;3554;42.132;24.786;2023-02-18T02:30:29;99984.56;;;7.60;85.32
7026;BME280;3554;42.132;24.786;2023-02-18T02:33:13;99976.13;;;7.47;86.83
7026;BME280;3554;42.132;24.786;2023-02-18T02:35:50;99976.13;;;7.47;87.08
7026;BME280;3554;42.132;24.786;2023-02-18T02:38:24;99971.03;;;7.41;87.63
7026;BME280;3554;42.132;24.786;2023-02-18T02:41:01;99978.66;;;7.52;86.50
7026;BME280;3554;42.132;24.786;2023-02-18T02:43:41;99982.94;;;7.54;86.89
7026;BME280;3554;42.132;24.786;2023-02-18T02:46:15;99990.38;;;7.73;86.43
7026;BME280;3554;42.132;24.786;2023-02-18T02:48:47;99991.88;;;7.86;84.28
7026;BME280;3554;42.132;24.786;2023-02-18T02:51:19;99979.97;;;7.73;85.05
7026;BME280;3554;42.132;24.786;2023-02-18T02:53:48;99977.69;;;7.57;86.18
7026;BME280;3554;42.132;24.786;2023-02-18T02:56:16;99935.84;;;7.21;86.54
7026;BME280;3554;42.132;24.786;2023-02-18T02:58:44;99987.13;;;7.63;85.94
7026;BME280;3554;42.132;24.786;2023-02-18T03:01:25;99991.38;;;7.69;85.97
7026;BME280;3554;42.132;24.786;2023-02-18T03:04:27;99979.25;;;7.66;85.17
7026;BME280;3554;42.132;24.786;2023-02-18T03:07:12;99990.47;;;7.70;85.60
7026;BME280;3554;42.132;24.786;2023-02-18T03:09:58;99974.72;;;7.76;85.78
7026;BME280;3554;42.132;24.786;2023-02-18T03:12:30;99968.13;;;7.56;85.12
7026;BME280;3554;42.132;24.786;2023-02-18T03:15:04;99973.19;;;7.64;84.92
7026;BME280;3554;42.132;24.786;2023-02-18T03:17:36;99973.50;;;7.93;83.41
7026;BME280;3554;42.132;24.786;2023-02-18T03:20:08;99950.91;;;7.92;82.26
7026;BME280;3554;42.132;24.786;2023-02-18T03:22:43;99969.28;;;7.86;82.86
7026;BME280;3554;42.132;24.786;2023-02-18T03:25:13;99954.75;;;7.75;83.11
7026;BME280;3554;42.132;24.786;2023-02-18T03:27:43;99941.94;;;7.64;83.07
7026;BME280;3554;42.132;24.786;2023-02-18T03:30:16;99898.34;;;7.29;83.79
7026;BME280;3554;42.132;24.786;2023-02-18T03:32:48;99954.84;;;7.70;83.15
7026;BME280;3554;42.132;24.786;2023-02-18T03:35:17;99947.09;;;7.66;82.25
7026;BME280;3554;42.132;24.786;2023-02-18T03:37:49;99962.66;;;7.70;82.44
7026;BME280;3554;42.132;24.786;2023-02-18T03:40:17;99960.09;;;7.69;82.85
7026;BME280;3554;42.132;24.786;2023-02-18T03:42:44;99955.72;;;7.69;81.82
7026;BME280;3554;42.132;24.786;2023-02-18T03:45:11;99962.34;;;7.87;79.75
7026;BME280;3554;42.132;24.786;2023-02-18T03:47:38;99968.34;;;7.90;78.99
7026;BME280;3554;42.132;24.786;2023-02-18T03:50:06;99927.06;;;7.69;78.81
7026;BME280;3554;42.132;24.786;2023-02-18T03:52:33;99975.94;;;8.01;78.05
7026;BME280;3554;42.132;24.786;2023-02-18T03:55:02;99988.88;;;8.05;77.59
7026;BME280;3554;42.132;24.786;2023-02-18T03:57:29;99911.44;;;7.71;76.38
7026;BME280;3554;42.132;24.786;2023-02-18T03:59:56;99981.63;;;8.19;75.58
7026;BME280;3554;42.132;24.786;2023-02-18T04:02:23;99986.84;;;8.19;74.95
7026;BME280;3554;42.132;24.786;2023-02-18T04:04:49;99993.63;;;8.28;74.03
7026;BME280;3554;42.132;24.786;2023-02-18T04:07:34;99985.69;;;8.34;73.45
7026;BME280;3554;42.132;24.786;2023-02-18T04:10:03;99975.38;;;8.29;72.36
7026;BME280;3554;42.132;24.786;2023-02-18T04:12:30;99995.97;;;8.41;72.86
7026;BME280;3554;42.132;24.786;2023-02-18T04:14:57;99991.53;;;8.45;73.55
7026;BME280;3554;42.132;24.786;2023-02-18T04:17:23;99998.47;;;8.46;73.18
7026;BME280;3554;42.132;24.786;2023-02-18T04:19:50;100003.38;;;8.59;72.44
7026;BME280;3554;42.132;24.786;2023-02-18T04:22:17;100004.75;;;8.76;71.48
7026;BME280;3554;42.132;24.786;2023-02-18T04:24:44;100000.25;;;8.82;71.01
7026;BME280;3554;42.132;24.786;2023-02-18T04:27:12;99990.91;;;8.72;71.36
7026;BME280;3554;42.132;24.786;2023-02-18T04:29:38;99994.78;;;8.54;71.18
7026;BME280;3554;42.132;24.786;2023-02-18T04:32:05;99999.16;;;8.54;71.51
7026;BME280;3554;42.132;24.786;2023-02-18T04:34:32;99986.91;;;8.57;69.91
7026;BME280;3554;42.132;24.786;2023-02-18T04:36:59;99999.59;;;8.73;69.38
7026;BME280;3554;42.132;24.786;2023-02-18T04:39:26;99996.75;;;8.82;68.57
7026;BME280;3554;42.132;24.786;2023-02-18T04:41:52;99997.50;;;8.87;68.10
7026;BME280;3554;42.132;24.786;2023-02-18T04:44:20;100006.03;;;8.95;67.48
7026;BME280;3554;42.132;24.786;2023-02-18T04:46:47;100000.81;;;8.95;67.37
7026;BME280;3554;42.132;24.786;2023-02-18T04:49:14;99999.06;;;8.95;66.89
7026;BME280;3554;42.132;24.786;2023-02-18T04:51:41;99993.53;;;9.07;65.68
7026;BME280;3554;42.132;24.786;2023-02-18T04:54:07;99990.84;;;9.10;65.58
7026;BME280;3554;42.132;24.786;2023-02-18T04:56:34;99993.09;;;9.25;64.40
7026;BME280;3554;42.132;24.786;2023-02-18T04:59:01;99989.19;;;9.41;62.63
7026;BME280;3554;42.132;24.786;2023-02-18T05:01:29;99996.81;;;9.49;62.45
7026;BME280;3554;42.132;24.786;2023-02-18T05:03:56;99995.78;;;9.54;62.11
7026;BME280;3554;42.132;24.786;2023-02-18T05:06:22;99999.13;;;9.59;61.14
7026;BME280;3554;42.132;24.786;2023-02-18T05:08:49;99999.13;;;9.59;61.50
7026;BME280;3554;42.132;24.786;2023-02-18T05:11:16;99997.56;;;9.54;61.95
7026;BME280;3554;42.132;24.786;2023-02-18T05:13:43;100000.19;;;9.52;61.77
7026;BME280;3554;42.132;24.786;2023-02-18T05:16:09;99998.34;;;9.57;61.77
7026;BME280;3554;42.132;24.786;2023-02-18T05:18:37;99998.25;;;9.60;61.42
7026;BME280;3554;42.132;24.786;2023-02-18T05:21:05;99989.41;;;9.66;60.67
7026;BME280;3554;42.132;24.786;2023-02-18T05:23:31;99995.44;;;9.66;60.64
7026;BME280;3554;42.132;24.786;2023-02-18T05:25:58;99999.75;;;9.69;60.54
7026;BME280;3554;42.132;24.786;2023-02-18T05:28:25;99995.44;;;9.68;61.14
7026;BME280;3554;42.132;24.786;2023-02-18T05:30:52;99986.88;;;9.61;60.93
7026;BME280;3554;42.132;24.786;2023-02-18T05:33:19;99987.75;;;9.62;61.04
7026;BME280;3554;42.132;24.786;2023-02-18T05:35:47;99975.63;;;9.59;61.19
7026;BME280;3554;42.132;24.786;2023-02-18T05:38:14;99986.59;;;9.72;60.36
7026;BME280;3554;42.132;24.786;2023-02-18T05:40:41;99986.28;;;9.83;59.54
7026;BME280;3554;42.132;24.786;2023-02-18T05:43:08;99986.03;;;9.92;58.86
7026;BME280;3554;42.132;24.786;2023-02-18T05:45:35;99982.50;;;9.94;59.03
7026;BME280;3554;42.132;24.786;2023-02-18T05:48:02;99985.97;;;9.95;59.64
7026;BME280;3554;42.132;24.786;2023-02-18T05:50:29;99992.97;;;9.94;59.33
7026;BME280;3554;42.132;24.786;2023-02-18T05:52:57;99993.88;;;9.92;59.45
7026;BME280;3554;42.132;24.786;2023-02-18T05:55:24;99986.88;;;9.94;59.57
7026;BME280;3554;42.132;24.786;2023-02-18T05:57:51;99991.88;;;10.01;58.96
7026;BME280;3554;42.132;24.786;2023-02-18T06:00:19;99990.97;;;10.02;59.19
7026;BME280;3554;42.132;24.786;2023-02-18T06:02:45;99989.13;;;10.06;59.10
7026;BME280;3554;42.132;24.786;2023-02-18T06:05:12;99990.03;;;10.05;59.45
7026;BME280;3554;42.132;24.786;2023-02-18T06:07:39;99987.34;;;10.09;59.54
7026;BME280;3554;42.132;24.786;2023-02-18T06:10:08;99988.06;;;10.14;59.72
7026;BME280;3554;42.132;24.786;2023-02-18T06:12:35;99984.53;;;10.15;59.83
7026;BME280;3554;42.132;24.786;2023-02-18T06:15:02;99996.88;;;10.10;58.76
7026;BME280;3554;42.132;24.786;2023-02-18T06:17:29;99991.41;;;10.19;58.19
7026;BME280;3554;42.132;24.786;2023-02-18T06:19:55;99997.34;;;10.24;57.92
7026;BME280;3554;42.132;24.786;2023-02-18T06:22:22;99972.31;;;10.16;57.90
7026;BME280;3554;42.132;24.786;2023-02-18T06:24:49;99999.09;;;10.24;57.64
7026;BME280;3554;42.132;24.786;2023-02-18T06:27:18;99890.91;;;9.66;57.18
7026;BME280;3554;42.132;24.786;2023-02-18T06:29:45;99983.13;;;10.33;57.42
7026;BME280;3554;42.132;24.786;2023-02-18T06:32:11;99989.13;;;10.36;57.16
7026;BME280;3554;42.132;24.786;2023-02-18T06:34:38;99989.84;;;10.41;56.68
7026;BME280;3554;42.132;24.786;2023-02-18T06:37:05;100000.94;;;10.49;56.65
7026;BME280;3554;42.132;24.786;2023-02-18T06:39:31;99981.00;;;10.45;56.02
7026;BME280;3554;42.132;24.786;2023-02-18T06:41:58;100003.06;;;10.66;55.59
7026;BME280;3554;42.132;24.786;2023-02-18T06:44:26;100004.66;;;10.71;55.77
7026;BME280;3554;42.132;24.786;2023-02-18T06:46:53;99991.41;;;10.76;55.70
7026;BME280;3554;42.132;24.786;2023-02-18T06:49:20;99958.34;;;10.72;54.70
7026;BME280;3554;42.132;24.786;2023-02-18T06:51:47;99978.47;;;10.98;54.93
7026;BME280;3554;42.132;24.786;2023-02-18T06:54:13;99970.22;;;11.10;54.46
7026;BME280;3554;42.132;24.786;2023-02-18T06:56:40;99964.31;;;11.29;53.80
7026;BME280;3554;42.132;24.786;2023-02-18T06:59:07;99953.06;;;11.50;52.02
7026;BME280;3554;42.132;24.786;2023-02-18T07:01:35;99954.56;;;11.57;51.30
7026;BME280;3554;42.132;24.786;2023-02-18T07:04:02;99956.63;;;11.74;51.59
7026;BME280;3554;42.132;24.786;2023-02-18T07:06:29;99950.44;;;11.76;51.39
7026;BME280;3554;42.132;24.786;2023-02-18T07:08:55;99960.41;;;11.90;51.81
7026;BME280;3554;42.132;24.786;2023-02-18T07:11:22;99953.16;;;11.97;50.70
7026;BME280;3554;42.132;24.786;2023-02-18T07:13:49;99959.06;;;12.03;51.04
7026;BME280;3554;42.132;24.786;2023-02-18T07:16:16;99975.31;;;12.13;51.16
7026;BME280;3554;42.132;24.786;2023-02-18T07:18:44;99968.44;;;12.32;51.24
7026;BME280;3554;42.132;24.786;2023-02-18T07:21:11;99965.31;;;12.45;50.74
7026;BME280;3554;42.132;24.786;2023-02-18T07:23:38;99960.00;;;12.47;49.65
7026;BME280;3554;42.132;24.786;2023-02-18T07:26:06;99909.28;;;12.23;49.77
7026;BME280;3554;42.132;24.786;2023-02-18T07:28:33;99958.47;;;12.63;49.59
7026;BME280;3554;42.132;24.786;2023-02-18T07:31:00;99956.53;;;12.68;48.66
7026;BME280;3554;42.132;24.786;2023-02-18T07:33:26;99959.88;;;12.93;48.04
7026;BME280;3554;42.132;24.786;2023-02-18T07:35:55;99950.09;;;12.97;47.70
7026;BME280;3554;42.132;24.786;2023-02-18T07:38:24;99922.13;;;12.96;48.10
7026;BME280;3554;42.132;24.786;2023-02-18T07:40:51;99916.72;;;12.99;48.11
7026;BME280;3554;42.132;24.786;2023-02-18T07:43:18;99914.09;;;12.99;47.61
7026;BME280;3554;42.132;24.786;2023-02-18T07:45:45;99934.78;;;13.08;47.93
7026;BME280;3554;42.132;24.786;2023-02-18T07:48:12;99938.00;;;13.14;47.64
7026;BME280;3554;42.132;24.786;2023-02-18T07:50:40;99938.88;;;13.15;47.27
7026;BME280;3554;42.132;24.786;2023-02-18T07:53:10;99936.38;;;13.12;47.38
7026;BME280;3554;42.132;24.786;2023-02-18T07:55:37;99930.03;;;13.16;47.60
7026;BME280;3554;42.132;24.786;2023-02-18T07:58:16;99937.81;;;13.19;47.25
7026;BME280;3554;42.132;24.786;2023-02-18T08:00:43;99926.25;;;13.23;47.47
7026;BME280;3554;42.132;24.786;2023-02-18T08:03:12;99927.31;;;13.19;47.00
7026;BME280;3554;42.132;24.786;2023-02-18T08:05:39;99923.38;;;13.29;47.12
7026;BME280;3554;42.132;24.786;2023-02-18T08:08:06;99857.84;;;13.24;46.75
7026;BME280;3554;42.132;24.786;2023-02-18T08:10:34;99924.66;;;13.79;46.43
7026;BME280;3554;42.132;24.786;2023-02-18T08:13:01;99922.88;;;13.98;46.17
7026;BME280;3554;42.132;24.786;2023-02-18T08:15:27;99884.97;;;14.02;45.42
7026;BME280;3554;42.132;24.786;2023-02-18T08:17:54;99913.16;;;14.37;44.68
7026;BME280;3554;42.132;24.786;2023-02-18T08:20:21;99917.22;;;14.44;44.66
7026;BME280;3554;42.132;24.786;2023-02-18T08:22:48;99910.25;;;14.43;44.35
7026;BME280;3554;42.132;24.786;2023-02-18T08:25:15;99919.22;;;14.39;44.46
7026;BME280;3554;42.132;24.786;2023-02-18T08:27:43;99906.22;;;14.36;44.98
7026;BME280;3554;42.132;24.786;2023-02-18T08:30:11;99894.75;;;14.37;45.36
7026;BME280;3554;42.132;24.786;2023-02-18T08:32:38;99897.53;;;14.34;44.86
7026;BME280;3554;42.132;24.786;2023-02-18T08:35:06;99899.25;;;14.15;45.26
7026;BME280;3554;42.132;24.786;2023-02-18T08:37:33;99898.44;;;14.15;45.58
7026;BME280;3554;42.132;24.786;2023-02-18T08:40:00;99754.84;;;13.35;46.18
7026;BME280;3554;42.132;24.786;2023-02-18T08:42:27;99898.63;;;14.47;46.01
7026;BME280;3554;42.132;24.786;2023-02-18T08:44:56;99877.69;;;14.63;45.33
7026;BME280;3554;42.132;24.786;2023-02-18T08:47:22;99881.41;;;14.76;45.26
7026;BME280;3554;42.132;24.786;2023-02-18T08:49:50;99905.94;;;14.95;44.93
7026;BME280;3554;42.132;24.786;2023-02-18T08:52:17;99917.03;;;15.19;44.84
7026;BME280;3554;42.132;24.786;2023-02-18T08:54:44;99920.75;;;15.49;44.78
7026;BME280;3554;42.132;24.786;2023-02-18T08:57:11;99925.75;;;15.55;44.52
7026;BME280;3554;42.132;24.786;2023-02-18T08:59:38;99932.28;;;15.48;44.43
7026;BME280;3554;42.132;24.786;2023-02-18T09:02:06;99929.94;;;15.59;44.25
7026;BME280;3554;42.132;24.786;2023-02-18T09:04:33;99915.59;;;15.80;42.72
7026;BME280;3554;42.132;24.786;2023-02-18T09:06:59;99924.63;;;16.08;42.35
7026;BME280;3554;42.132;24.786;2023-02-18T09:09:26;99919.00;;;16.46;42.11
7026;BME280;3554;42.132;24.786;2023-02-18T09:11:53;99908.72;;;16.57;41.55
7026;BME280;3554;42.132;24.786;2023-02-18T09:14:20;99909.50;;;16.59;41.12
7026;BME280;3554;42.132;24.786;2023-02-18T09:16:47;99912.88;;;16.45;41.45
7026;BME280;3554;42.132;24.786;2023-02-18T09:19:16;99915.09;;;16.37;41.40
7026;BME280;3554;42.132;24.786;2023-02-18T09:21:43;99912.47;;;16.37;41.51
7026;BME280;3554;42.132;24.786;2023-02-18T09:24:10;99905.81;;;16.30;41.13
7026;BME280;3554;42.132;24.786;2023-02-18T09:26:37;99910.50;;;16.41;40.91
7026;BME280;3554;42.132;24.786;2023-02-18T09:29:04;99896.00;;;16.63;40.63
7026;BME280;3554;42.132;24.786;2023-02-18T09:31:30;99899.22;;;16.84;40.10
7026;BME280;3554;42.132;24.786;2023-02-18T09:33:59;99869.72;;;16.76;39.91
7026;BME280;3554;42.132;24.786;2023-02-18T09:36:28;99901.38;;;16.77;39.89
7026;BME280;3554;42.132;24.786;2023-02-18T09:38:55;99895.81;;;16.66;40.22
7026;BME280;3554;42.132;24.786;2023-02-18T09:41:31;99896.34;;;16.57;40.17
7026;BME280;3554;42.132;24.786;2023-02-18T09:44:04;99895.44;;;16.58;40.26
7026;BME280;3554;42.132;24.786;2023-02-18T09:46:38;99838.91;;;16.14;40.06
7026;BME280;3554;42.132;24.786;2023-02-18T09:49:11;99898.88;;;16.43;39.86
7026;BME280;3554;42.132;24.786;2023-02-18T09:51:41;99883.31;;;16.54;40.03
7026;BME280;3554;42.132;24.786;2023-02-18T09:54:09;99900.44;;;16.78;39.78
7026;BME280;3554;42.132;24.786;2023-02-18T09:56:37;99911.63;;;16.68;39.86
7026;BME280;3554;42.132;24.786;2023-02-18T09:59:10;99889.78;;;16.49;39.86
7026;BME280;3554;42.132;24.786;2023-02-18T10:01:39;99902.19;;;16.48;39.81
7026;BME280;3554;42.132;24.786;2023-02-18T10:06:59;99885.16;;;16.83;39.69
7026;BME280;3554;42.132;24.786;2023-02-18T10:09:30;99869.47;;;17.10;39.67
7026;BME280;3554;42.132;24.786;2023-02-18T10:12:03;99852.75;;;17.24;38.91
7026;BME280;3554;42.132;24.786;2023-02-18T10:14:33;99871.75;;;17.60;38.88
7026;BME280;3554;42.132;24.786;2023-02-18T10:17:00;99865.69;;;17.72;38.05
7026;BME280;3554;42.132;24.786;2023-02-18T10:19:30;99857.47;;;17.90;37.71
7026;BME280;3554;42.132;24.786;2023-02-18T10:22:00;99853.00;;;18.05;37.06
7026;BME280;3554;42.132;24.786;2023-02-18T10:24:31;99842.25;;;17.94;36.47
7026;BME280;3554;42.132;24.786;2023-02-18T10:27:01;99850.34;;;17.91;36.74
7026;BME280;3554;42.132;24.786;2023-02-18T10:29:29;99851.50;;;18.01;37.09
7026;BME280;3554;42.132;24.786;2023-02-18T10:31:58;99852.91;;;18.06;36.92
7026;BME280;3554;42.132;24.786;2023-02-18T10:34:39;99845.03;;;18.05;36.46
7026;BME280;3554;42.132;24.786;2023-02-18T10:37:27;99833.50;;;18.06;36.47
7026;BME280;3554;42.132;24.786;2023-02-18T10:40:08;99832.38;;;18.10;36.84
7026;BME280;3554;42.132;24.786;2023-02-18T10:42:45;99831.84;;;18.32;36.56
7026;BME280;3554;42.132;24.786;2023-02-18T10:45:21;99814.41;;;18.42;36.00
7026;BME280;3554;42.132;24.786;2023-02-18T10:47:59;99806.00;;;18.62;35.92
7026;BME280;3554;42.132;24.786;2023-02-18T10:50:31;99809.00;;;18.70;35.62
7026;BME280;3554;42.132;24.786;2023-02-18T10:53:09;99805.16;;;18.61;35.25
7026;BME280;3554;42.132;24.786;2023-02-18T10:55:39;99787.59;;;18.46;35.17
7026;BME280;3554;42.132;24.786;2023-02-18T10:58:26;99788.13;;;18.51;34.99
7026;BME280;3554;42.132;24.786;2023-02-18T11:00:53;99797.59;;;18.55;34.91
7026;BME280;3554;42.132;24.786;2023-02-18T11:03:22;99780.47;;;18.73;34.53
7026;BME280;3554;42.132;24.786;2023-02-18T11:05:51;99774.78;;;18.92;34.62
7026;BME280;3554;42.132;24.786;2023-02-18T11:08:23;99797.59;;;19.07;34.98
7026;BME280;3554;42.132;24.786;2023-02-18T11:10:52;99804.19;;;19.27;34.78
7026;BME280;3554;42.132;24.786;2023-02-18T11:13:25;99803.06;;;19.31;34.69
7026;BME280;3554;42.132;24.786;2023-02-18T11:15:58;99794.34;;;19.41;34.49
7026;BME280;3554;42.132;24.786;2023-02-18T11:18:37;99775.88;;;19.40;34.59
7026;BME280;3554;42.132;24.786;2023-02-18T11:21:17;99781.03;;;19.16;34.62
7026;BME280;3554;42.132;24.786;2023-02-18T11:23:47;99774.03;;;18.90;34.91
7026;BME280;3554;42.132;24.786;2023-02-18T11:26:16;99777.06;;;18.71;35.26
7026;BME280;3554;42.132;24.786;2023-02-18T11:28:48;99764.66;;;18.72;35.45
7026;BME280;3554;42.132;24.786;2023-02-18T11:31:20;99769.75;;;18.87;35.61
7026;BME280;3554;42.132;24.786;2023-02-18T11:33:50;99754.59;;;19.02;35.56
7026;BME280;3554;42.132;24.786;2023-02-18T11:36:21;99755.78;;;19.10;35.62
7026;BME280;3554;42.132;24.786;2023-02-18T11:38:53;99751.84;;;19.16;35.40
7026;BME280;3554;42.132;24.786;2023-02-18T11:41:27;99747.91;;;19.21;35.91
7026;BME280;3554;42.132;24.786;2023-02-18T11:43:56;99744.44;;;19.34;35.30
7026;BME280;3554;42.132;24.786;2023-02-18T11:46:25;99749.59;;;19.22;34.98
7026;BME280;3554;42.132;24.786;2023-02-18T11:48:53;99738.47;;;19.05;34.71
7026;BME280;3554;42.132;24.786;2023-02-18T11:51:23;99726.56;;;18.98;34.90
7026;BME280;3554;42.132;24.786;2023-02-18T11:53:59;99743.88;;;19.03;35.07
7026;BME280;3554;42.132;24.786;2023-02-18T11:56:29;99723.41;;;18.93;34.63
7026;BME280;3554;42.132;24.786;2023-02-18T11:58:57;99722.00;;;19.12;34.61
7026;BME280;3554;42.132;24.786;2023-02-18T12:01:34;99715.44;;;19.18;34.43
7026;BME280;3554;42.132;24.786;2023-02-18T12:04:08;99719.78;;;19.32;34.44
7026;BME280;3554;42.132;24.786;2023-02-18T12:06:40;99693.34;;;19.17;34.39
7026;BME280;3554;42.132;24.786;2023-02-18T12:09:18;99692.59;;;19.28;34.44
7026;BME280;3554;42.132;24.786;2023-02-18T12:11:48;99706.84;;;19.40;34.60
7026;BME280;3554;42.132;24.786;2023-02-18T12:14:18;99709.34;;;19.54;34.38
7026;BME280;3554;42.132;24.786;2023-02-18T12:16:55;99715.78;;;19.75;35.08
7026;BME280;3554;42.132;24.786;2023-02-18T12:19:44;99703.31;;;19.88;35.11
7026;BME280;3554;42.132;24.786;2023-02-18T12:22:18;99697.41;;;19.95;34.99
7026;BME280;3554;42.132;24.786;2023-02-18T12:24:56;99700.75;;;20.10;34.50
7026;BME280;3554;42.132;24.786;2023-02-18T12:27:29;99683.16;;;19.96;35.16
7026;BME280;3554;42.132;24.786;2023-02-18T12:33:07;99697.09;;;20.23;35.32
7026;BME280;3554;42.132;24.786;2023-02-18T12:35:51;99678.75;;;20.08;35.80
7026;BME280;3554;42.132;24.786;2023-02-18T12:38:53;99681.47;;;19.95;36.01
7026;BME280;3554;42.132;24.786;2023-02-18T12:41:30;99681.75;;;20.03;36.41
7026;BME280;3554;42.132;24.786;2023-02-18T12:44:03;99678.25;;;20.27;35.98
7026;BME280;3554;42.132;24.786;2023-02-18T12:46:45;99668.72;;;20.35;36.08
7026;BME280;3554;42.132;24.786;2023-02-18T12:49:24;99672.09;;;20.26;36.06
7026;BME280;3554;42.132;24.786;2023-02-18T12:52:06;99668.31;;;20.52;36.19
7026;BME280;3554;42.132;24.786;2023-02-18T12:54:45;99663.81;;;20.42;35.80
7026;BME280;3554;42.132;24.786;2023-02-18T12:57:29;99647.38;;;20.13;35.92
7026;BME280;3554;42.132;24.786;2023-02-18T13:05:52;99658.00;;;20.13;36.49
7026;BME280;3554;42.132;24.786;2023-02-18T13:08:30;99654.06;;;20.18;36.59
7026;BME280;3554;42.132;24.786;2023-02-18T13:11:11;99658.94;;;20.12;36.79
7026;BME280;3554;42.132;24.786;2023-02-18T13:13:49;99655.63;;;19.97;36.62
7026;BME280;3554;42.132;24.786;2023-02-18T13:16:19;99652.78;;;20.11;37.39
7026;BME280;3554;42.132;24.786;2023-02-18T13:18:53;99654.81;;;20.08;37.23
7026;BME280;3554;42.132;24.786;2023-02-18T13:21:24;99646.28;;;19.92;37.68
7026;BME280;3554;42.132;24.786;2023-02-18T13:23:55;99655.13;;;19.92;37.75
7026;BME280;3554;42.132;24.786;2023-02-18T13:26:24;99658.63;;;19.93;38.17
7026;BME280;3554;42.132;24.786;2023-02-18T13:29:02;99653.81;;;19.98;38.11
7026;BME280;3554;42.132;24.786;2023-02-18T13:31:41;99643.00;;;19.88;38.19
7026;BME280;3554;42.132;24.786;2023-02-18T13:34:18;99642.69;;;19.93;38.49
7026;BME280;3554;42.132;24.786;2023-02-18T13:37:00;99655.75;;;19.96;38.66
7026;BME280;3554;42.132;24.786;2023-02-18T13:39:30;99646.84;;;20.08;38.27
7026;BME280;3554;42.132;24.786;2023-02-18T13:45:26;99642.25;;;19.99;38.32
7026;BME280;3554;42.132;24.786;2023-02-18T13:47:53;99649.63;;;20.06;38.26
7026;BME280;3554;42.132;24.786;2023-02-18T13:50:38;99659.28;;;20.20;38.02